Annaba/Rabah Bitat

Airport
ICAO code: 
DABB
Summary
ICAO Region: 
AFI
Territory: 
Location: 
Annaba,
Coordinates: 
Aerial View: 
36° 49' 19.999" N, 7° 48' 33.998" E
Metar
Observation
DABB 280600Z 28004KT 9999 FEW020 BKN033 11/04 Q1003
Station
Annaba
Date/Time
2021-11-28 06:00:00
Wind direction
280°
Wind speed
04 kts
Lowest cloud amount
few clouds
Temperature
11°C
Dew point
4°C
Humidity
62%
QNH
1003 hPa
Weather condition
n/a

Description

Rabah Bitat Airport, formerly known as Les Salines Airport, and popularly as El Mellah Airport is an international airport located 9 km south of Annaba, a city in Algeria.

Runways

Designator Length Width Surface Rops
5/23 2290 45 ASP Yes/Yes
1/19 3000 45 ASP Yes/Yes
Airport map: 
Aerial View: 

SKYbrary Partners:

Safety knowledge contributed by: